sensor_id;sensor_type;location;lat;lon;timestamp;P1;P2;P0
34240;PMS7003;20503;50.200;19.508;2023-12-20T00:00:10;4;3;2
34240;PMS7003;20503;50.200;19.508;2023-12-20T00:01:17;7;4;3
34240;PMS7003;20503;50.200;19.508;2023-12-20T00:02:39;7;4;3
34240;PMS7003;20503;50.200;19.508;2023-12-20T00:03:47;4;3;2
34240;PMS7003;20503;50.200;19.508;2023-12-20T00:04:49;4;3;2
34240;PMS7003;20503;50.200;19.508;2023-12-20T00:05:51;5;3;3
34240;PMS7003;20503;50.200;19.508;2023-12-20T00:06:55;6;3;2
34240;PMS7003;20503;50.200;19.508;2023-12-20T00:07:56;6;3;2
34240;PMS7003;20503;50.200;19.508;2023-12-20T00:08:59;8;4;3
34240;PMS7003;20503;50.200;19.508;2023-12-20T00:10:00;6;4;3
34240;PMS7003;20503;50.200;19.508;2023-12-20T00:11:01;6;3;2
34240;PMS7003;20503;50.200;19.508;2023-12-20T00:12:09;5;3;3
34240;PMS7003;20503;50.200;19.508;2023-12-20T00:13:11;6;4;3
34240;PMS7003;20503;50.200;19.508;2023-12-20T00:14:13;6;3;2
34240;PMS7003;20503;50.200;19.508;2023-12-20T00:15:31;6;4;3
34240;PMS7003;20503;50.200;19.508;2023-12-20T00:16:32;8;5;3
34240;PMS7003;20503;50.200;19.508;2023-12-20T00:17:33;8;5;3
34240;PMS7003;20503;50.200;19.508;2023-12-20T00:18:36;8;3;2
34240;PMS7003;20503;50.200;19.508;2023-12-20T00:19:48;6;3;3
34240;PMS7003;20503;50.200;19.508;2023-12-20T00:20:51;7;4;3
34240;PMS7003;20503;50.200;19.508;2023-12-20T00:22:18;7;4;3
34240;PMS7003;20503;50.200;19.508;2023-12-20T00:23:19;6;4;3
34240;PMS7003;20503;50.200;19.508;2023-12-20T00:24:24;5;3;2
34240;PMS7003;20503;50.200;19.508;2023-12-20T00:25:26;5;3;2
34240;PMS7003;20503;50.200;19.508;2023-12-20T00:26:27;6;3;2
34240;PMS7003;20503;50.200;19.508;2023-12-20T00:27:29;6;3;2
34240;PMS7003;20503;50.200;19.508;2023-12-20T00:28:33;5;3;3
34240;PMS7003;20503;50.200;19.508;2023-12-20T00:29:35;6;4;3
34240;PMS7003;20503;50.200;19.508;2023-12-20T00:30:38;6;4;3
34240;PMS7003;20503;50.200;19.508;2023-12-20T00:31:45;5;3;2
34240;PMS7003;20503;50.200;19.508;2023-12-20T00:32:48;5;3;2
34240;PMS7003;20503;50.200;19.508;2023-12-20T00:33:50;6;3;2
34240;PMS7003;20503;50.200;19.508;2023-12-20T00:35:15;6;4;3
34240;PMS7003;20503;50.200;19.508;2023-12-20T00:36:17;4;3;2
34240;PMS7003;20503;50.200;19.508;2023-12-20T00:37:45;5;4;3
34240;PMS7003;20503;50.200;19.508;2023-12-20T00:38:48;5;4;3
34240;PMS7003;20503;50.200;19.508;2023-12-20T00:39:52;7;4;3
34240;PMS7003;20503;50.200;19.508;2023-12-20T00:40:54;7;4;3
34240;PMS7003;20503;50.200;19.508;2023-12-20T00:41:58;7;5;3
34240;PMS7003;20503;50.200;19.508;2023-12-20T00:43:02;7;6;4
34240;PMS7003;20503;50.200;19.508;2023-12-20T00:44:04;7;6;4
34240;PMS7003;20503;50.200;19.508;2023-12-20T00:45:24;12;11;8
34240;PMS7003;20503;50.200;19.508;2023-12-20T00:46:27;12;11;8
34240;PMS7003;20503;50.200;19.508;2023-12-20T00:47:28;11;8;6
34240;PMS7003;20503;50.200;19.508;2023-12-20T00:48:29;9;6;4
34240;PMS7003;20503;50.200;19.508;2023-12-20T00:49:34;10;8;6
34240;PMS7003;20503;50.200;19.508;2023-12-20T00:50:35;9;7;5
34240;PMS7003;20503;50.200;19.508;2023-12-20T00:51:44;11;9;7
34240;PMS7003;20503;50.200;19.508;2023-12-20T00:52:45;15;13;10
34240;PMS7003;20503;50.200;19.508;2023-12-20T00:53:51;13;11;8
34240;PMS7003;20503;50.200;19.508;2023-12-20T00:54:55;16;12;9
34240;PMS7003;20503;50.200;19.508;2023-12-20T00:55:57;13;10;7
34240;PMS7003;20503;50.200;19.508;2023-12-20T00:56:59;13;10;7
34240;PMS7003;20503;50.200;19.508;2023-12-20T00:58:11;11;8;6
34240;PMS7003;20503;50.200;19.508;2023-12-20T00:59:17;11;8;6
34240;PMS7003;20503;50.200;19.508;2023-12-20T01:00:19;7;5;5
34240;PMS7003;20503;50.200;19.508;2023-12-20T01:01:22;19;15;11
34240;PMS7003;20503;50.200;19.508;2023-12-20T01:02:24;13;8;6
34240;PMS7003;20503;50.200;19.508;2023-12-20T01:03:26;13;8;6
34240;PMS7003;20503;50.200;19.508;2023-12-20T01:04:32;14;9;7
34240;PMS7003;20503;50.200;19.508;2023-12-20T01:05:33;14;9;7
34240;PMS7003;20503;50.200;19.508;2023-12-20T01:06:42;17;13;9
34240;PMS7003;20503;50.200;19.508;2023-12-20T01:07:43;17;14;10
34240;PMS7003;20503;50.200;19.508;2023-12-20T01:08:46;17;14;10
34240;PMS7003;20503;50.200;19.508;2023-12-20T01:09:48;10;9;5
34240;PMS7003;20503;50.200;19.508;2023-12-20T01:10:51;10;9;5
34240;PMS7003;20503;50.200;19.508;2023-12-20T01:11:53;12;9;6
34240;PMS7003;20503;50.200;19.508;2023-12-20T01:12:56;12;9;6
34240;PMS7003;20503;50.200;19.508;2023-12-20T01:13:58;11;7;6
34240;PMS7003;20503;50.200;19.508;2023-12-20T01:14:59;12;8;5
34240;PMS7003;20503;50.200;19.508;2023-12-20T01:16:14;9;7;6
34240;PMS7003;20503;50.200;19.508;2023-12-20T01:17:16;12;9;6
34240;PMS7003;20503;50.200;19.508;2023-12-20T01:18:18;5;5;3
34240;PMS7003;20503;50.200;19.508;2023-12-20T01:19:32;5;5;4
34240;PMS7003;20503;50.200;19.508;2023-12-20T01:20:36;8;6;4
34240;PMS7003;20503;50.200;19.508;2023-12-20T01:21:37;8;6;4
34240;PMS7003;20503;50.200;19.508;2023-12-20T01:22:42;7;4;3
34240;PMS7003;20503;50.200;19.508;2023-12-20T01:24:05;8;5;4
34240;PMS7003;20503;50.200;19.508;2023-12-20T01:25:16;8;5;4
34240;PMS7003;20503;50.200;19.508;2023-12-20T01:26:19;7;6;4
34240;PMS7003;20503;50.200;19.508;2023-12-20T01:27:23;7;6;4
34240;PMS7003;20503;50.200;19.508;2023-12-20T01:28:30;8;5;3
34240;PMS7003;20503;50.200;19.508;2023-12-20T01:29:31;4;3;3
34240;PMS7003;20503;50.200;19.508;2023-12-20T01:30:34;5;3;2
34240;PMS7003;20503;50.200;19.508;2023-12-20T01:31:37;9;5;4
34240;PMS7003;20503;50.200;19.508;2023-12-20T01:32:41;9;5;4
34240;PMS7003;20503;50.200;19.508;2023-12-20T01:33:42;7;5;4
34240;PMS7003;20503;50.200;19.508;2023-12-20T01:34:44;6;4;2
34240;PMS7003;20503;50.200;19.508;2023-12-20T01:35:47;4;3;2
34240;PMS7003;20503;50.200;19.508;2023-12-20T01:36:49;5;4;3
34240;PMS7003;20503;50.200;19.508;2023-12-20T01:37:51;4;3;2
34240;PMS7003;20503;50.200;19.508;2023-12-20T01:38:52;4;3;2
34240;PMS7003;20503;50.200;19.508;2023-12-20T01:40:19;5;5;3
34240;PMS7003;20503;50.200;19.508;2023-12-20T01:41:22;5;4;3
34240;PMS7003;20503;50.200;19.508;2023-12-20T01:42:23;7;5;3
34240;PMS7003;20503;50.200;19.508;2023-12-20T01:43:29;8;5;3
34240;PMS7003;20503;50.200;19.508;2023-12-20T01:44:30;7;5;3
34240;PMS7003;20503;50.200;19.508;2023-12-20T01:45:32;7;5;3
34240;PMS7003;20503;50.200;19.508;2023-12-20T01:46:34;7;5;4
34240;PMS7003;20503;50.200;19.508;2023-12-20T01:47:36;6;5;4
34240;PMS7003;20503;50.200;19.508;2023-12-20T01:48:37;7;5;3
34240;PMS7003;20503;50.200;19.508;2023-12-20T01:49:40;4;3;2
34240;PMS7003;20503;50.200;19.508;2023-12-20T01:50:43;4;3;2
34240;PMS7003;20503;50.200;19.508;2023-12-20T01:51:46;6;4;3
34240;PMS7003;20503;50.200;19.508;2023-12-20T01:52:50;6;4;3
34240;PMS7003;20503;50.200;19.508;2023-12-20T01:54:19;6;4;3
34240;PMS7003;20503;50.200;19.508;2023-12-20T01:55:23;6;4;2
34240;PMS7003;20503;50.200;19.508;2023-12-20T01:56:26;6;4;2
34240;PMS7003;20503;50.200;19.508;2023-12-20T01:57:31;6;4;3
34240;PMS7003;20503;50.200;19.508;2023-12-20T01:58:35;6;4;3
34240;PMS7003;20503;50.200;19.508;2023-12-20T01:59:44;4;3;2
34240;PMS7003;20503;50.200;19.508;2023-12-20T02:01:07;6;4;3
34240;PMS7003;20503;50.200;19.508;2023-12-20T02:02:12;3;3;3
34240;PMS7003;20503;50.200;19.508;2023-12-20T02:03:18;5;4;2
34240;PMS7003;20503;50.200;19.508;2023-12-20T02:04:21;7;4;2
34240;PMS7003;20503;50.200;19.508;2023-12-20T02:05:23;5;4;3
34240;PMS7003;20503;50.200;19.508;2023-12-20T02:06:31;5;4;3
34240;PMS7003;20503;50.200;19.508;2023-12-20T02:07:39;6;4;4
34240;PMS7003;20503;50.200;19.508;2023-12-20T02:08:42;6;4;4
34240;PMS7003;20503;50.200;19.508;2023-12-20T02:09:47;6;3;2
34240;PMS7003;20503;50.200;19.508;2023-12-20T02:10:54;6;5;3
34240;PMS7003;20503;50.200;19.508;2023-12-20T02:11:57;6;5;3
34240;PMS7003;20503;50.200;19.508;2023-12-20T02:12:59;5;3;2
34240;PMS7003;20503;50.200;19.508;2023-12-20T02:14:02;5;3;2
34240;PMS7003;20503;50.200;19.508;2023-12-20T02:15:05;10;4;3
34240;PMS7003;20503;50.200;19.508;2023-12-20T02:16:08;7;4;3
34240;PMS7003;20503;50.200;19.508;2023-12-20T02:17:26;5;3;2
34240;PMS7003;20503;50.200;19.508;2023-12-20T02:18:29;6;4;3
34240;PMS7003;20503;50.200;19.508;2023-12-20T02:19:31;6;4;3
34240;PMS7003;20503;50.200;19.508;2023-12-20T02:20:33;6;4;3
34240;PMS7003;20503;50.200;19.508;2023-12-20T02:21:37;4;4;3
34240;PMS7003;20503;50.200;19.508;2023-12-20T02:22:38;4;4;3
34240;PMS7003;20503;50.200;19.508;2023-12-20T02:23:43;7;4;2
34240;PMS7003;20503;50.200;19.508;2023-12-20T02:24:49;7;4;2
34240;PMS7003;20503;50.200;19.508;2023-12-20T02:25:53;5;3;2
34240;PMS7003;20503;50.200;19.508;2023-12-20T02:26:55;5;3;2
34240;PMS7003;20503;50.200;19.508;2023-12-20T02:27:59;5;3;2
34240;PMS7003;20503;50.200;19.508;2023-12-20T02:29:00;5;3;2
34240;PMS7003;20503;50.200;19.508;2023-12-20T02:30:04;4;3;2
34240;PMS7003;20503;50.200;19.508;2023-12-20T02:31:07;3;2;2
34240;PMS7003;20503;50.200;19.508;2023-12-20T02:32:08;6;3;2
34240;PMS7003;20503;50.200;19.508;2023-12-20T02:33:10;6;4;3
34240;PMS7003;20503;50.200;19.508;2023-12-20T02:34:19;6;4;3
34240;PMS7003;20503;50.200;19.508;2023-12-20T02:35:20;4;3;2
34240;PMS7003;20503;50.200;19.508;2023-12-20T02:36:22;3;3;2
34240;PMS7003;20503;50.200;19.508;2023-12-20T02:37:23;5;4;2
34240;PMS7003;20503;50.200;19.508;2023-12-20T02:38:25;5;4;2
34240;PMS7003;20503;50.200;19.508;2023-12-20T02:39:27;4;3;2
34240;PMS7003;20503;50.200;19.508;2023-12-20T02:40:29;4;3;2
34240;PMS7003;20503;50.200;19.508;2023-12-20T02:41:32;6;4;2
34240;PMS7003;20503;50.200;19.508;2023-12-20T02:42:34;5;5;3
34240;PMS7003;20503;50.200;19.508;2023-12-20T02:43:37;4;4;3
34240;PMS7003;20503;50.200;19.508;2023-12-20T02:44:39;4;4;3
34240;PMS7003;20503;50.200;19.508;2023-12-20T02:45:42;6;4;2
34240;PMS7003;20503;50.200;19.508;2023-12-20T02:46:44;6;4;2
34240;PMS7003;20503;50.200;19.508;2023-12-20T02:47:45;4;3;1
34240;PMS7003;20503;50.200;19.508;2023-12-20T02:48:47;4;3;1
34240;PMS7003;20503;50.200;19.508;2023-12-20T02:49:49;5;3;2
34240;PMS7003;20503;50.200;19.508;2023-12-20T02:50:51;4;3;2
34240;PMS7003;20503;50.200;19.508;2023-12-20T02:51:53;4;3;2
34240;PMS7003;20503;50.200;19.508;2023-12-20T02:52:57;5;3;2
34240;PMS7003;20503;50.200;19.508;2023-12-20T02:53:58;5;3;2
34240;PMS7003;20503;50.200;19.508;2023-12-20T02:55:13;4;3;2
34240;PMS7003;20503;50.200;19.508;2023-12-20T02:56:15;6;3;2
34240;PMS7003;20503;50.200;19.508;2023-12-20T02:57:17;6;3;2
34240;PMS7003;20503;50.200;19.508;2023-12-20T02:58:19;6;3;2
34240;PMS7003;20503;50.200;19.508;2023-12-20T02:59:21;5;4;2
34240;PMS7003;20503;50.200;19.508;2023-12-20T03:00:23;5;3;2
34240;PMS7003;20503;50.200;19.508;2023-12-20T03:01:29;5;3;2
34240;PMS7003;20503;50.200;19.508;2023-12-20T03:02:31;5;2;2
34240;PMS7003;20503;50.200;19.508;2023-12-20T03:03:38;4;3;2
34240;PMS7003;20503;50.200;19.508;2023-12-20T03:04:49;4;2;2
34240;PMS7003;20503;50.200;19.508;2023-12-20T03:05:51;5;3;2
34240;PMS7003;20503;50.200;19.508;2023-12-20T03:06:53;4;2;2
34240;PMS7003;20503;50.200;19.508;2023-12-20T03:07:54;5;4;2
34240;PMS7003;20503;50.200;19.508;2023-12-20T03:08:56;3;3;2
34240;PMS7003;20503;50.200;19.508;2023-12-20T03:09:59;3;3;2
34240;PMS7003;20503;50.200;19.508;2023-12-20T03:11:00;5;3;2
34240;PMS7003;20503;50.200;19.508;2023-12-20T03:12:02;5;3;2
34240;PMS7003;20503;50.200;19.508;2023-12-20T03:13:05;6;2;2
34240;PMS7003;20503;50.200;19.508;2023-12-20T03:14:12;3;2;2
34240;PMS7003;20503;50.200;19.508;2023-12-20T03:15:14;4;2;1
34240;PMS7003;20503;50.200;19.508;2023-12-20T03:16:16;4;2;2
34240;PMS7003;20503;50.200;19.508;2023-12-20T03:17:18;4;2;2
34240;PMS7003;20503;50.200;19.508;2023-12-20T03:18:22;2;2;1
34240;PMS7003;20503;50.200;19.508;2023-12-20T03:19:29;2;2;1
34240;PMS7003;20503;50.200;19.508;2023-12-20T03:20:30;5;2;2
34240;PMS7003;20503;50.200;19.508;2023-12-20T03:21:35;3;2;1
34240;PMS7003;20503;50.200;19.508;2023-12-20T03:22:36;3;2;1
34240;PMS7003;20503;50.200;19.508;2023-12-20T03:23:39;3;2;1
34240;PMS7003;20503;50.200;19.508;2023-12-20T03:24:46;3;2;1
34240;PMS7003;20503;50.200;19.508;2023-12-20T03:25:48;3;2;1
34240;PMS7003;20503;50.200;19.508;2023-12-20T03:26:53;4;3;2
34240;PMS7003;20503;50.200;19.508;2023-12-20T03:28:03;4;2;2
34240;PMS7003;20503;50.200;19.508;2023-12-20T03:29:22;4;3;2
34240;PMS7003;20503;50.200;19.508;2023-12-20T03:30:26;4;3;2
34240;PMS7003;20503;50.200;19.508;2023-12-20T03:31:31;4;2;1
34240;PMS7003;20503;50.200;19.508;2023-12-20T03:32:42;6;2;2
34240;PMS7003;20503;50.200;19.508;2023-12-20T03:33:43;4;3;2
34240;PMS7003;20503;50.200;19.508;2023-12-20T03:34:45;4;3;2
34240;PMS7003;20503;50.200;19.508;2023-12-20T03:35:46;3;2;2
34240;PMS7003;20503;50.200;19.508;2023-12-20T03:36:49;5;2;2
34240;PMS7003;20503;50.200;19.508;2023-12-20T03:37:51;5;2;2
34240;PMS7003;20503;50.200;19.508;2023-12-20T03:38:57;6;4;2
34240;PMS7003;20503;50.200;19.508;2023-12-20T03:40:00;6;4;2
34240;PMS7003;20503;50.200;19.508;2023-12-20T03:41:03;4;3;2
34240;PMS7003;20503;50.200;19.508;2023-12-20T03:42:06;5;3;2
34240;PMS7003;20503;50.200;19.508;2023-12-20T03:43:11;3;3;2
34240;PMS7003;20503;50.200;19.508;2023-12-20T03:44:13;5;3;3
34240;PMS7003;20503;50.200;19.508;2023-12-20T03:45:15;5;3;2
34240;PMS7003;20503;50.200;19.508;2023-12-20T03:46:19;5;3;2
34240;PMS7003;20503;50.200;19.508;2023-12-20T03:47:21;5;3;2
34240;PMS7003;20503;50.200;19.508;2023-12-20T03:48:22;5;3;2
34240;PMS7003;20503;50.200;19.508;2023-12-20T03:49:24;7;2;2
34240;PMS7003;20503;50.200;19.508;2023-12-20T03:50:26;7;2;2
34240;PMS7003;20503;50.200;19.508;2023-12-20T03:51:31;6;4;3
34240;PMS7003;20503;50.200;19.508;2023-12-20T03:52:33;6;4;3
34240;PMS7003;20503;50.200;19.508;2023-12-20T03:53:34;5;3;3
34240;PMS7003;20503;50.200;19.508;2023-12-20T03:54:37;7;5;3
34240;PMS7003;20503;50.200;19.508;2023-12-20T03:55:42;5;3;3
34240;PMS7003;20503;50.200;19.508;2023-12-20T03:56:45;6;4;2
34240;PMS7003;20503;50.200;19.508;2023-12-20T03:57:49;6;4;2
34240;PMS7003;20503;50.200;19.508;2023-12-20T03:58:52;5;4;3
34240;PMS7003;20503;50.200;19.508;2023-12-20T03:59:54;5;4;3
34240;PMS7003;20503;50.200;19.508;2023-12-20T04:00:55;6;4;3
34240;PMS7003;20503;50.200;19.508;2023-12-20T04:01:59;7;4;3
34240;PMS7003;20503;50.200;19.508;2023-12-20T04:03:10;5;4;3
34240;PMS7003;20503;50.200;19.508;2023-12-20T04:04:14;5;4;3
34240;PMS7003;20503;50.200;19.508;2023-12-20T04:05:18;5;4;3
34240;PMS7003;20503;50.200;19.508;2023-12-20T04:06:20;7;5;4
34240;PMS7003;20503;50.200;19.508;2023-12-20T04:07:24;8;6;4
34240;PMS7003;20503;50.200;19.508;2023-12-20T04:08:26;8;6;4
34240;PMS7003;20503;50.200;19.508;2023-12-20T04:09:36;6;5;4
34240;PMS7003;20503;50.200;19.508;2023-12-20T04:10:41;6;5;4
34240;PMS7003;20503;50.200;19.508;2023-12-20T04:11:45;8;5;4
34240;PMS7003;20503;50.200;19.508;2023-12-20T04:12:47;11;7;4
34240;PMS7003;20503;50.200;19.508;2023-12-20T04:13:51;6;5;3
34240;PMS7003;20503;50.200;19.508;2023-12-20T04:14:53;6;5;3
34240;PMS7003;20503;50.200;19.508;2023-12-20T04:15:54;9;6;5
34240;PMS7003;20503;50.200;19.508;2023-12-20T04:17:01;9;6;5
34240;PMS7003;20503;50.200;19.508;2023-12-20T04:18:09;9;6;5
34240;PMS7003;20503;50.200;19.508;2023-12-20T04:19:12;7;5;4
34240;PMS7003;20503;50.200;19.508;2023-12-20T04:20:14;7;5;4
34240;PMS7003;20503;50.200;19.508;2023-12-20T04:21:17;9;6;4
34240;PMS7003;20503;50.200;19.508;2023-12-20T04:22:39;10;6;4
34240;PMS7003;20503;50.200;19.508;2023-12-20T04:23:40;7;6;5
34240;PMS7003;20503;50.200;19.508;2023-12-20T04:24:48;9;6;5
34240;PMS7003;20503;50.200;19.508;2023-12-20T04:25:50;7;5;4
34240;PMS7003;20503;50.200;19.508;2023-12-20T04:26:51;8;6;4
34240;PMS7003;20503;50.200;19.508;2023-12-20T04:27:52;8;6;4
34240;PMS7003;20503;50.200;19.508;2023-12-20T04:28:55;10;6;5
34240;PMS7003;20503;50.200;19.508;2023-12-20T04:29:58;10;6;5
34240;PMS7003;20503;50.200;19.508;2023-12-20T04:31:00;8;6;5
34240;PMS7003;20503;50.200;19.508;2023-12-20T04:32:14;9;6;5
34240;PMS7003;20503;50.200;19.508;2023-12-20T04:33:16;8;5;5
34240;PMS7003;20503;50.200;19.508;2023-12-20T04:34:18;8;6;5
34240;PMS7003;20503;50.200;19.508;2023-12-20T04:35:20;6;6;4
34240;PMS7003;20503;50.200;19.508;2023-12-20T04:36:22;9;7;5
34240;PMS7003;20503;50.200;19.508;2023-12-20T04:37:27;9;7;5
34240;PMS7003;20503;50.200;19.508;2023-12-20T04:38:29;10;7;5
34240;PMS7003;20503;50.200;19.508;2023-12-20T04:39:32;10;7;5
34240;PMS7003;20503;50.200;19.508;2023-12-20T04:40:35;8;6;5
34240;PMS7003;20503;50.200;19.508;2023-12-20T04:41:39;8;6;5
34240;PMS7003;20503;50.200;19.508;2023-12-20T04:42:45;8;6;5
34240;PMS7003;20503;50.200;19.508;2023-12-20T04:43:47;7;7;6
34240;PMS7003;20503;50.200;19.508;2023-12-20T04:44:50;9;8;6
34240;PMS7003;20503;50.200;19.508;2023-12-20T04:45:55;10;7;6
34240;PMS7003;20503;50.200;19.508;2023-12-20T04:46:58;10;7;6
34240;PMS7003;20503;50.200;19.508;2023-12-20T04:48:01;12;9;5
34240;PMS7003;20503;50.200;19.508;2023-12-20T04:49:11;13;10;7
34240;PMS7003;20503;50.200;19.508;2023-12-20T04:50:15;12;9;7
34240;PMS7003;20503;50.200;19.508;2023-12-20T04:51:17;12;9;7
34240;PMS7003;20503;50.200;19.508;2023-12-20T04:52:30;10;7;6
34240;PMS7003;20503;50.200;19.508;2023-12-20T04:53:50;12;8;6
34240;PMS7003;20503;50.200;19.508;2023-12-20T04:54:52;13;9;6
34240;PMS7003;20503;50.200;19.508;2023-12-20T04:55:55;13;9;6
34240;PMS7003;20503;50.200;19.508;2023-12-20T04:56:57;11;8;5
34240;PMS7003;20503;50.200;19.508;2023-12-20T04:58:02;11;8;6
34240;PMS7003;20503;50.200;19.508;2023-12-20T04:59:04;11;8;6
34240;PMS7003;20503;50.200;19.508;2023-12-20T05:00:08;12;8;6
34240;PMS7003;20503;50.200;19.508;2023-12-20T05:01:10;11;9;6
34240;PMS7003;20503;50.200;19.508;2023-12-20T05:02:14;11;9;6
34240;PMS7003;20503;50.200;19.508;2023-12-20T05:03:15;12;9;6
34240;PMS7003;20503;50.200;19.508;2023-12-20T05:04:17;11;8;6
34240;PMS7003;20503;50.200;19.508;2023-12-20T05:05:20;11;8;6
34240;PMS7003;20503;50.200;19.508;2023-12-20T05:06:23;14;11;7
34240;PMS7003;20503;50.200;19.508;2023-12-20T05:07:25;13;10;7
34240;PMS7003;20503;50.200;19.508;2023-12-20T05:08:27;12;10;8
34240;PMS7003;20503;50.200;19.508;2023-12-20T05:09:28;12;10;8
34240;PMS7003;20503;50.200;19.508;2023-12-20T05:10:30;14;10;7
34240;PMS7003;20503;50.200;19.508;2023-12-20T05:11:43;19;11;7
34240;PMS7003;20503;50.200;19.508;2023-12-20T05:12:45;19;11;7
34240;PMS7003;20503;50.200;19.508;2023-12-20T05:13:46;15;9;7
34240;PMS7003;20503;50.200;19.508;2023-12-20T05:14:48;15;9;7
34240;PMS7003;20503;50.200;19.508;2023-12-20T05:15:52;13;11;7
34240;PMS7003;20503;50.200;19.508;2023-12-20T05:16:54;13;11;7
34240;PMS7003;20503;50.200;19.508;2023-12-20T05:18:00;13;10;7
34240;PMS7003;20503;50.200;19.508;2023-12-20T05:19:02;14;10;7
34240;PMS7003;20503;50.200;19.508;2023-12-20T05:20:07;14;10;7
34240;PMS7003;20503;50.200;19.508;2023-12-20T05:21:10;11;10;6
34240;PMS7003;20503;50.200;19.508;2023-12-20T05:22:12;11;10;6
34240;PMS7003;20503;50.200;19.508;2023-12-20T05:23:14;14;11;8
34240;PMS7003;20503;50.200;19.508;2023-12-20T05:24:37;15;11;9
34240;PMS7003;20503;50.200;19.508;2023-12-20T05:25:38;15;11;8
34240;PMS7003;20503;50.200;19.508;2023-12-20T05:26:40;18;12;8
34240;PMS7003;20503;50.200;19.508;2023-12-20T05:27:42;17;12;8
34240;PMS7003;20503;50.200;19.508;2023-12-20T05:28:45;17;12;8
34240;PMS7003;20503;50.200;19.508;2023-12-20T05:29:48;15;11;9
34240;PMS7003;20503;50.200;19.508;2023-12-20T05:30:51;19;12;9
34240;PMS7003;20503;50.200;19.508;2023-12-20T05:31:59;16;13;8
34240;PMS7003;20503;50.200;19.508;2023-12-20T05:33:02;16;13;8
34240;PMS7003;20503;50.200;19.508;2023-12-20T05:34:03;13;10;8
34240;PMS7003;20503;50.200;19.508;2023-12-20T05:35:06;15;12;8
34240;PMS7003;20503;50.200;19.508;2023-12-20T05:36:09;20;14;9
34240;PMS7003;20503;50.200;19.508;2023-12-20T05:37:15;20;14;9
34240;PMS7003;20503;50.200;19.508;2023-12-20T05:38:35;18;12;8
34240;PMS7003;20503;50.200;19.508;2023-12-20T05:39:37;18;12;8
34240;PMS7003;20503;50.200;19.508;2023-12-20T05:40:39;18;12;8
34240;PMS7003;20503;50.200;19.508;2023-12-20T05:41:46;19;14;10
34240;PMS7003;20503;50.200;19.508;2023-12-20T05:42:48;14;12;10
34240;PMS7003;20503;50.200;19.508;2023-12-20T05:43:49;17;14;9
34240;PMS7003;20503;50.200;19.508;2023-12-20T05:44:55;17;13;8
34240;PMS7003;20503;50.200;19.508;2023-12-20T05:45:56;19;15;9
34240;PMS7003;20503;50.200;19.508;2023-12-20T05:46:59;19;15;9
34240;PMS7003;20503;50.200;19.508;2023-12-20T05:48:23;18;14;10
34240;PMS7003;20503;50.200;19.508;2023-12-20T05:49:25;18;14;10
34240;PMS7003;20503;50.200;19.508;2023-12-20T05:50:26;17;12;9
34240;PMS7003;20503;50.200;19.508;2023-12-20T05:51:28;17;12;9
34240;PMS7003;20503;50.200;19.508;2023-12-20T05:52:29;16;13;9
34240;PMS7003;20503;50.200;19.508;2023-12-20T05:53:43;17;13;8
34240;PMS7003;20503;50.200;19.508;2023-12-20T05:54:45;16;12;9
34240;PMS7003;20503;50.200;19.508;2023-12-20T05:55:47;17;13;9
34240;PMS7003;20503;50.200;19.508;2023-12-20T05:56:50;17;13;9
34240;PMS7003;20503;50.200;19.508;2023-12-20T05:57:52;14;13;9
34240;PMS7003;20503;50.200;19.508;2023-12-20T05:58:53;14;13;9
34240;PMS7003;20503;50.200;19.508;2023-12-20T05:59:55;18;13;9
34240;PMS7003;20503;50.200;19.508;2023-12-20T06:00:56;18;13;9
34240;PMS7003;20503;50.200;19.508;2023-12-20T06:02:03;17;12;9
34240;PMS7003;20503;50.200;19.508;2023-12-20T06:03:05;19;13;10
34240;PMS7003;20503;50.200;19.508;2023-12-20T06:04:06;18;12;9
34240;PMS7003;20503;50.200;19.508;2023-12-20T06:05:10;16;12;8
34240;PMS7003;20503;50.200;19.508;2023-12-20T06:06:14;16;12;8
34240;PMS7003;20503;50.200;19.508;2023-12-20T06:08:23;17;12;8
34240;PMS7003;20503;50.200;19.508;2023-12-20T06:09:43;20;12;8
34240;PMS7003;20503;50.200;19.508;2023-12-20T06:10:46;20;12;8
34240;PMS7003;20503;50.200;19.508;2023-12-20T06:11:47;20;13;9
34240;PMS7003;20503;50.200;19.508;2023-12-20T06:12:49;20;13;9
34240;PMS7003;20503;50.200;19.508;2023-12-20T06:13:53;20;15;11
34240;PMS7003;20503;50.200;19.508;2023-12-20T06:14:55;20;15;11
34240;PMS7003;20503;50.200;19.508;2023-12-20T06:16:09;17;13;9
34240;PMS7003;20503;50.200;19.508;2023-12-20T06:17:12;17;13;9
34240;PMS7003;20503;50.200;19.508;2023-12-20T06:18:16;20;14;10
34240;PMS7003;20503;50.200;19.508;2023-12-20T06:19:22;19;13;9
34240;PMS7003;20503;50.200;19.508;2023-12-20T06:20:25;19;13;9
34240;PMS7003;20503;50.200;19.508;2023-12-20T06:21:27;17;13;9
34240;PMS7003;20503;50.200;19.508;2023-12-20T06:22:29;17;13;9
34240;PMS7003;20503;50.200;19.508;2023-12-20T06:23:33;23;15;11
34240;PMS7003;20503;50.200;19.508;2023-12-20T06:24:35;22;14;11
34240;PMS7003;20503;50.200;19.508;2023-12-20T06:25:37;17;13;10
34240;PMS7003;20503;50.200;19.508;2023-12-20T06:26:39;17;13;10
34240;PMS7003;20503;50.200;19.508;2023-12-20T06:27:41;18;15;11
34240;PMS7003;20503;50.200;19.508;2023-12-20T06:28:43;21;17;11
34240;PMS7003;20503;50.200;19.508;2023-12-20T06:29:59;21;16;11
34240;PMS7003;20503;50.200;19.508;2023-12-20T06:31:01;24;19;11
34240;PMS7003;20503;50.200;19.508;2023-12-20T06:32:04;24;19;11
34240;PMS7003;20503;50.200;19.508;2023-12-20T06:33:06;20;14;11
34240;PMS7003;20503;50.200;19.508;2023-12-20T06:34:11;20;14;11
34240;PMS7003;20503;50.200;19.508;2023-12-20T06:35:13;20;16;11
34240;PMS7003;20503;50.200;19.508;2023-12-20T06:36:17;24;17;12
34240;PMS7003;20503;50.200;19.508;2023-12-20T06:37:18;24;17;12
34240;PMS7003;20503;50.200;19.508;2023-12-20T06:38:21;20;14;10
34240;PMS7003;20503;50.200;19.508;2023-12-20T06:39:23;17;13;10
34240;PMS7003;20503;50.200;19.508;2023-12-20T06:40:24;21;14;11
34240;PMS7003;20503;50.200;19.508;2023-12-20T06:41:29;21;14;11
34240;PMS7003;20503;50.200;19.508;2023-12-20T06:42:41;18;14;11
34240;PMS7003;20503;50.200;19.508;2023-12-20T06:43:43;17;12;10
34240;PMS7003;20503;50.200;19.508;2023-12-20T06:44:47;17;12;10
34240;PMS7003;20503;50.200;19.508;2023-12-20T06:45:49;18;13;10
34240;PMS7003;20503;50.200;19.508;2023-12-20T06:46:55;18;13;10
34240;PMS7003;20503;50.200;19.508;2023-12-20T06:47:57;18;13;9
34240;PMS7003;20503;50.200;19.508;2023-12-20T06:49:00;18;13;9
34240;PMS7003;20503;50.200;19.508;2023-12-20T06:50:03;17;14;11
34240;PMS7003;20503;50.200;19.508;2023-12-20T06:51:13;21;15;11
34240;PMS7003;20503;50.200;19.508;2023-12-20T06:52:26;21;14;10
34240;PMS7003;20503;50.200;19.508;2023-12-20T06:53:29;21;14;10
34240;PMS7003;20503;50.200;19.508;2023-12-20T06:54:49;19;14;10
34240;PMS7003;20503;50.200;19.508;2023-12-20T06:57:17;19;14;9
34240;PMS7003;20503;50.200;19.508;2023-12-20T06:58:20;18;14;9
34240;PMS7003;20503;50.200;19.508;2023-12-20T06:59:21;16;12;9
34240;PMS7003;20503;50.200;19.508;2023-12-20T07:00:24;18;13;9
34240;PMS7003;20503;50.200;19.508;2023-12-20T07:01:50;17;13;10
34240;PMS7003;20503;50.200;19.508;2023-12-20T07:03:19;18;14;9
34240;PMS7003;20503;50.200;19.508;2023-12-20T07:04:21;18;14;9